Time;durP1;ratioP1;P1;durP2;ratioP2;P2;SDS_P1;SDS_P2;PMS_P1;PMS_P2;Temp;Humidity;BMP_temperature;BMP_pressure;BME280_temperature;BME280_humidity;BME280_pressure;Samples;Min_cycle;Max_cycle;Signal;HPM_P1;HPM_P2
2023/01/27 00:00:52;;;;;;;24.25;14.73;;;;;;;4.19;94.84;97967.25;5081902;28;20028;-65
2023/01/27 00:03:18;;;;;;;23.15;14.32;;;;;;;4.15;94.54;97978.72;5087944;27;20513;-65
2023/01/27 00:05:45;;;;;;;32.20;16.20;;;;;;;4.02;95.34;97973.72;5084777;27;20034;-65
2023/01/27 00:08:10;;;;;;;29.08;16.00;;;;;;;4.10;94.89;97978.25;5084168;27;20091;-65
2023/01/27 00:10:36;;;;;;;28.48;15.50;;;;;;;4.15;94.56;97981.28;5066586;28;20733;-65
2023/01/27 00:15:46;;;;;;;28.27;14.73;;;;;;;4.13;94.68;97956.63;5097485;28;20741;-65
2023/01/27 00:18:12;;;;;;;28.10;14.90;;;;;;;4.16;94.52;97959.78;5104282;27;20035;-65
2023/01/27 00:26:10;;;;;;;23.27;14.07;;;;;;;4.16;94.12;97967.50;5096452;28;20053;-65
2023/01/27 00:28:37;;;;;;;28.63;15.90;;;;;;;4.19;94.55;97969.00;5084983;27;20043;-65
2023/01/27 00:31:03;;;;;;;25.70;14.68;;;;;;;4.18;94.51;97957.06;5066736;28;20036;-65
2023/01/27 00:33:29;;;;;;;24.95;14.85;;;;;;;4.27;94.86;97958.09;5082517;28;20070;-65
2023/01/27 00:36:02;;;;;;;27.90;15.77;;;;;;;4.19;94.45;97954.38;5086671;28;20059;-65
2023/01/27 00:38:29;;;;;;;24.48;14.65;;;;;;;4.18;94.68;97954.50;5083481;28;20147;-65
2023/01/27 00:43:39;;;;;;;25.85;14.57;;;;;;;4.11;93.98;97923.31;5098879;28;20062;-64
2023/01/27 00:46:04;;;;;;;23.38;14.18;;;;;;;4.09;93.25;97914.06;5081180;28;20841;-64
2023/01/27 00:48:30;;;;;;;25.30;15.23;;;;;;;4.29;92.28;97961.38;5065517;28;20513;-64
2023/01/27 00:50:56;;;;;;;24.85;14.43;;;;;;;4.18;93.42;97955.34;5082674;28;20038;-64
2023/01/27 00:53:21;;;;;;;29.20;16.15;;;;;;;4.22;93.08;97951.56;5061883;28;20472;-64
2023/01/27 00:55:47;;;;;;;26.27;14.80;;;;;;;4.23;93.68;97952.38;5081626;28;20020;-64
2023/01/27 00:58:12;;;;;;;27.30;15.25;;;;;;;4.16;94.03;97946.09;5083518;28;20034;-65
2023/01/27 01:00:38;;;;;;;26.23;14.88;;;;;;;3.92;92.91;97898.19;5096961;28;20104;-64
2023/01/27 01:03:04;;;;;;;28.65;15.80;;;;;;;3.87;93.23;97890.03;5091732;28;20042;-64
2023/01/27 01:05:29;;;;;;;25.73;14.98;;;;;;;4.18;93.39;97941.63;5073925;28;20141;-64
2023/01/27 01:07:55;;;;;;;24.95;14.75;;;;;;;4.17;93.70;97940.00;5059658;28;20036;-64
2023/01/27 01:10:20;;;;;;;26.58;15.95;;;;;;;4.19;93.72;97948.41;5083814;28;20139;-64
2023/01/27 01:12:46;;;;;;;23.70;14.40;;;;;;;4.22;93.22;97955.91;5095444;28;20466;-64
2023/01/27 01:15:11;;;;;;;26.48;15.10;;;;;;;4.23;93.54;97942.09;5098080;28;20133;-64
2023/01/27 01:17:37;;;;;;;26.55;14.75;;;;;;;4.28;92.87;97942.56;5096095;28;20490;-64
2023/01/27 01:20:03;;;;;;;23.83;14.40;;;;;;;4.16;92.67;97940.94;5093197;28;20842;-64
2023/01/27 01:22:29;;;;;;;24.33;13.35;;;;;;;4.17;91.92;97948.53;5098360;28;20494;-65
2023/01/27 01:24:54;;;;;;;25.27;14.68;;;;;;;3.84;91.98;97897.97;5067140;28;20379;-65
2023/01/27 01:27:20;;;;;;;27.98;14.77;;;;;;;4.15;92.03;97934.97;5083888;28;20692;-64
2023/01/27 01:29:45;;;;;;;22.60;14.13;;;;;;;4.16;91.87;97938.38;5089478;28;20758;-65
2023/01/27 01:32:11;;;;;;;25.35;14.65;;;;;;;4.15;91.47;97941.88;5091540;28;20523;-64
2023/01/27 01:34:36;;;;;;;22.55;13.75;;;;;;;4.10;90.88;97926.81;5081556;28;20107;-64
2023/01/27 01:37:03;;;;;;;23.48;13.85;;;;;;;3.81;91.10;97893.06;5099942;28;20027;-65
2023/01/27 01:39:30;;;;;;;25.52;14.93;;;;;;;3.87;91.56;97907.19;5084652;28;20023;-64
2023/01/27 01:41:55;;;;;;;24.17;14.85;;;;;;;4.03;92.00;97935.94;5077775;28;20028;-65
2023/01/27 01:44:30;;;;;;;28.73;15.00;;;;;;;3.38;92.07;97839.84;5083848;28;20535;-64
2023/01/27 01:46:56;;;;;;;24.63;15.20;;;;;;;3.95;92.67;97941.69;5082465;28;20028;-64
2023/01/27 01:49:32;;;;;;;26.65;16.17;;;;;;;3.85;92.71;97908.16;5084900;28;20561;-65
2023/01/27 01:52:01;;;;;;;26.25;14.68;;;;;;;3.92;93.42;97923.91;5063511;28;20038;-64
2023/01/27 01:54:27;;;;;;;;;;;;;;;3.95;94.62;97933.16;5083210;28;20494;-64
2023/01/27 01:57:07;;;;;;;26.67;14.15;;;;;;;3.91;94.28;97919.72;5067647;27;19923;-65
2023/01/27 01:59:37;;;;;;;25.08;14.52;;;;;;;4.07;94.08;97927.06;5066100;28;20037;-64
2023/01/27 02:02:05;;;;;;;25.83;15.43;;;;;;;3.74;94.23;97900.47;5073537;28;20031;-65
2023/01/27 02:04:46;;;;;;;26.40;15.53;;;;;;;4.08;94.38;97933.81;5086688;28;20024;-64
2023/01/27 02:07:32;;;;;;;27.70;15.43;;;;;;;4.05;94.72;97934.06;5081351;28;20019;-64
2023/01/27 02:09:59;;;;;;;24.83;15.50;;;;;;;3.85;94.70;97915.88;5084777;28;20030;-64
2023/01/27 02:12:24;;;;;;;25.60;14.88;;;;;;;3.97;94.68;97932.09;5077934;28;20031;-64
2023/01/27 02:14:50;;;;;;;24.42;14.90;;;;;;;3.79;93.82;97893.19;5067850;28;20031;-65
2023/01/27 02:17:16;;;;;;;28.23;15.70;;;;;;;3.84;93.82;97915.97;5066533;28;20436;-64
2023/01/27 02:19:44;;;;;;;30.08;15.60;;;;;;;3.60;93.67;97877.56;5079091;28;20103;-64
2023/01/27 02:22:16;;;;;;;26.00;15.30;;;;;;;3.94;94.01;97928.94;5097896;28;20058;-65
2023/01/27 02:24:46;;;;;;;28.83;16.17;;;;;;;3.64;94.75;97878.97;5085229;28;20055;-65
2023/01/27 02:27:13;;;;;;;27.80;16.73;;;;;;;3.91;94.56;97917.16;5086502;27;20289;-64
2023/01/27 02:29:38;;;;;;;25.77;15.52;;;;;;;3.99;94.51;97931.97;5098425;28;20110;-64
2023/01/27 02:32:04;;;;;;;26.55;16.15;;;;;;;3.97;94.72;97923.56;5072417;28;20111;-64
2023/01/27 02:34:33;;;;;;;26.60;16.10;;;;;;;3.63;94.84;97874.75;5084148;28;20019;-65
2023/01/27 02:37:02;;;;;;;27.00;15.40;;;;;;;3.98;94.26;97927.75;5082654;28;20658;-65
2023/01/27 02:39:32;;;;;;;26.88;16.15;;;;;;;3.98;94.20;97923.44;5068177;28;20023;-64
2023/01/27 02:41:58;;;;;;;24.80;15.40;;;;;;;3.93;94.89;97917.03;5081941;28;20027;-64
2023/01/27 02:44:25;;;;;;;27.98;15.13;;;;;;;3.77;94.29;97896.81;5080771;28;20392;-64
2023/01/27 02:46:51;;;;;;;25.92;15.65;;;;;;;3.55;94.23;97872.78;5102409;28;20543;-64
2023/01/27 02:49:16;;;;;;;26.88;16.52;;;;;;;3.89;94.23;97915.59;5085735;28;20024;-64
2023/01/27 02:51:42;;;;;;;24.75;14.50;;;;;;;3.81;95.31;97923.94;5080008;28;20479;-65
2023/01/27 02:54:07;;;;;;;26.83;16.13;;;;;;;3.77;95.18;97907.91;5075251;28;20027;-65
2023/01/27 02:56:33;;;;;;;25.35;15.95;;;;;;;3.82;94.87;97923.00;5101822;28;20036;-64
2023/01/27 02:58:58;;;;;;;28.83;17.25;;;;;;;3.85;95.00;97922.75;5099482;28;20458;-64
2023/01/27 03:01:24;;;;;;;29.60;16.60;;;;;;;3.76;95.28;97923.47;5082170;28;20676;-64
2023/01/27 03:03:51;;;;;;;28.95;16.95;;;;;;;3.71;95.45;97923.03;5083258;28;20019;-65
2023/01/27 03:06:17;;;;;;;24.90;15.60;;;;;;;3.66;95.91;97923.38;5079752;28;20031;-65
2023/01/27 03:08:43;;;;;;;24.35;15.68;;;;;;;3.73;95.17;97924.53;5084785;28;20478;-65
2023/01/27 03:11:09;;;;;;;25.20;15.63;;;;;;;3.65;95.15;97911.44;5098923;28;20030;-64
2023/01/27 03:13:37;;;;;;;28.80;17.05;;;;;;;3.55;94.94;97907.94;5068922;28;20024;-65
2023/01/27 03:18:49;;;;;;;28.95;16.05;;;;;;;3.57;94.52;97911.22;5079941;28;20718;-64
2023/01/27 03:21:16;;;;;;;29.88;16.70;;;;;;;3.63;94.45;97929.56;5086548;28;20059;-64
2023/01/27 03:23:44;;;;;;;27.63;16.02;;;;;;;3.57;94.23;97924.06;5079151;28;20071;-64
2023/01/27 03:26:10;;;;;;;26.67;17.52;;;;;;;3.63;93.49;97918.44;5078800;28;20027;-64
2023/01/27 03:28:35;;;;;;;26.52;17.13;;;;;;;3.73;93.20;97928.84;5082152;28;20021;-64
2023/01/27 03:31:03;;;;;;;26.88;16.90;;;;;;;3.44;93.32;97894.16;5081657;28;20145;-65
2023/01/27 03:33:28;;;;;;;26.58;16.42;;;;;;;3.73;92.94;97927.09;5083477;28;20019;-64
2023/01/27 03:46:53;;;;;;;29.90;17.65;;;;;;;3.61;92.48;97913.44;5094851;27;20462;-65
2023/01/27 03:49:19;;;;;;;26.33;16.30;;;;;;;3.70;92.60;97921.38;5068826;28;20015;-65
2023/01/27 03:51:44;;;;;;;27.15;16.73;;;;;;;3.69;92.05;97914.59;5064227;28;20027;-64
2023/01/27 03:54:10;;;;;;;31.38;17.52;;;;;;;3.66;91.87;97921.59;5071534;28;20034;-65
2023/01/27 03:56:35;;;;;;;29.50;17.60;;;;;;;3.76;91.25;97928.59;5063809;28;20093;-64
2023/01/27 03:59:01;;;;;;;27.60;16.60;;;;;;;3.70;91.23;97916.22;5083712;28;20035;-64
2023/01/27 04:01:26;;;;;;;27.27;16.33;;;;;;;3.74;91.51;97931.31;5079041;28;20451;-64
2023/01/27 04:09:32;;;;;;;30.73;18.58;;;;;;;3.60;92.22;97931.56;5081965;28;20070;-64
2023/01/27 04:12:00;;;;;;;31.50;16.88;;;;;;;3.23;92.19;97881.19;5079113;28;20036;-64
2023/01/27 04:14:40;;;;;;;28.13;16.48;;;;;;;3.39;92.46;97931.41;5080293;28;20100;-65
2023/01/27 04:17:09;;;;;;;26.02;15.82;;;;;;;3.45;91.53;97920.69;5063912;28;20554;-64
2023/01/27 04:19:35;;;;;;;27.08;16.30;;;;;;;3.36;91.85;97927.34;5065678;27;20394;-64
2023/01/27 04:22:00;;;;;;;28.98;17.88;;;;;;;3.34;91.44;97929.22;5079555;28;20035;-64
2023/01/27 04:24:26;;;;;;;29.15;16.70;;;;;;;3.22;91.62;97894.16;5067538;27;20049;-64
2023/01/27 04:26:54;;;;;;;29.98;18.20;;;;;;;3.40;91.92;97938.22;5075707;28;20061;-65
2023/01/27 04:29:22;;;;;;;28.30;17.58;;;;;;;3.27;90.67;97885.16;5062872;28;20483;-64
2023/01/27 04:31:48;;;;;;;28.10;15.82;;;;;;;3.19;91.50;97902.09;5080095;28;20036;-64
2023/01/27 04:34:14;;;;;;;28.27;16.75;;;;;;;3.39;91.63;97934.00;5081855;28;20051;-64
2023/01/27 04:36:40;;;;;;;28.90;17.70;;;;;;;3.41;92.05;97934.69;5078912;28;20509;-64
2023/01/27 04:39:06;;;;;;;30.33;17.42;;;;;;;3.44;91.41;97931.91;5067311;28;20070;-65
2023/01/27 04:41:32;;;;;;;29.33;17.88;;;;;;;3.41;90.97;97944.97;5086069;28;20044;-64
2023/01/27 04:43:57;;;;;;;28.98;17.63;;;;;;;3.37;91.27;97941.81;5081661;28;20032;-65
2023/01/27 04:46:23;;;;;;;28.38;16.67;;;;;;;3.38;91.44;97929.81;5079986;28;20603;-65
2023/01/27 04:48:49;;;;;;;28.75;16.38;;;;;;;3.36;91.23;97935.06;5077993;28;20708;-64
2023/01/27 04:51:14;;;;;;;31.08;17.65;;;;;;;3.35;90.61;97924.88;5084727;28;20028;-64
2023/01/27 04:53:40;;;;;;;26.50;16.65;;;;;;;3.26;91.80;97934.09;5082351;28;20556;-65
2023/01/27 04:56:17;;;;;;;29.23;17.52;;;;;;;3.11;92.34;97927.56;5088332;28;20058;-64
2023/01/27 04:58:43;;;;;;;26.65;16.25;;;;;;;3.17;91.91;97933.03;5082672;28;20020;-65
2023/01/27 05:01:09;;;;;;;31.85;17.05;;;;;;;3.16;92.18;97922.88;5066132;28;20031;-65
2023/01/27 05:03:35;;;;;;;29.25;16.88;;;;;;;2.89;91.91;97878.59;5095724;28;20659;-64
2023/01/27 05:06:00;;;;;;;28.75;17.38;;;;;;;3.06;92.30;97933.00;5083641;28;20028;-64
2023/01/27 05:08:26;;;;;;;27.27;16.45;;;;;;;2.74;92.65;97887.44;5097531;28;20107;-64
2023/01/27 05:10:51;;;;;;;29.20;17.08;;;;;;;3.07;92.92;97934.66;5064502;28;20035;-64
2023/01/27 05:13:17;;;;;;;31.63;16.92;;;;;;;2.97;92.30;97931.94;5081047;28;20023;-64
2023/01/27 05:15:42;;;;;;;30.25;17.98;;;;;;;3.03;92.79;97940.94;5073364;28;20038;-64
2023/01/27 05:18:08;;;;;;;28.67;16.15;;;;;;;2.63;92.78;97880.53;5083584;28;20631;-64
2023/01/27 05:20:34;;;;;;;29.33;16.80;;;;;;;3.14;92.73;97948.69;5094906;28;20032;-64
2023/01/27 05:25:43;;;;;;;29.60;16.05;;;;;;;3.05;91.86;97947.63;5083091;28;20145;-64
2023/01/27 05:28:10;;;;;;;28.88;16.50;;;;;;;3.15;91.67;97945.16;5098416;28;20041;-64
2023/01/27 05:30:35;;;;;;;27.15;16.15;;;;;;;3.20;91.27;97953.34;5086088;28;20489;-64
2023/01/27 05:33:01;;;;;;;28.80;16.40;;;;;;;3.28;90.83;97952.78;5093391;28;20024;-64
2023/01/27 05:35:26;;;;;;;26.83;15.48;;;;;;;3.25;91.51;97960.75;5070701;28;20031;-64
2023/01/27 05:37:52;;;;;;;28.35;16.98;;;;;;;2.98;91.21;97918.19;5073399;28;20028;-64
2023/01/27 05:40:17;;;;;;;27.55;16.17;;;;;;;3.24;91.31;97967.59;5066218;28;20395;-65
2023/01/27 05:42:43;;;;;;;26.63;16.33;;;;;;;3.30;91.42;97957.81;5078879;28;20486;-65
2023/01/27 05:45:09;;;;;;;27.67;16.00;;;;;;;3.04;90.82;97919.47;5047880;27;20040;-65
2023/01/27 05:47:34;;;;;;;30.10;17.05;;;;;;;3.32;90.66;97969.59;5062551;28;20024;-64
2023/01/27 05:50:00;;;;;;;26.92;16.50;;;;;;;3.28;90.48;97968.19;5061436;28;20036;-65
2023/01/27 05:52:25;;;;;;;29.58;16.20;;;;;;;3.23;90.15;97978.84;5042361;28;20637;-64
2023/01/27 05:54:51;;;;;;;29.50;16.30;;;;;;;3.21;90.21;97980.69;5064477;28;20031;-64
2023/01/27 05:57:16;;;;;;;27.58;15.32;;;;;;;2.96;90.24;97939.78;5059062;28;20727;-64
2023/01/27 05:59:42;;;;;;;28.35;16.20;;;;;;;3.17;90.86;97978.47;5058480;28;20094;-64
2023/01/27 06:02:08;;;;;;;29.23;16.10;;;;;;;3.21;91.09;97982.44;5057953;28;20456;-64
2023/01/27 06:04:33;;;;;;;26.85;15.52;;;;;;;2.74;90.69;97927.66;5043571;28;20033;-64
2023/01/27 06:06:59;;;;;;;28.38;15.60;;;;;;;2.95;90.77;97961.25;5059069;28;20082;-67
2023/01/27 06:09:25;;;;;;;26.70;14.95;;;;;;;3.09;90.98;97986.75;5045974;28;20037;-64
2023/01/27 06:11:50;;;;;;;31.05;16.02;;;;;;;3.09;91.02;97997.00;5061157;28;20033;-64
2023/01/27 06:14:16;;;;;;;29.05;16.50;;;;;;;2.97;91.64;97993.56;5060041;28;20454;-64
2023/01/27 06:16:45;;;;;;;25.90;14.65;;;;;;;2.97;92.18;97995.34;5058294;28;20498;-64
2023/01/27 06:19:11;;;;;;;25.73;15.40;;;;;;;2.98;92.09;97991.84;5060556;28;20033;-64
2023/01/27 06:21:37;;;;;;;29.25;15.95;;;;;;;2.96;92.29;97986.81;5060247;28;20159;-63
2023/01/27 06:24:03;;;;;;;26.95;16.23;;;;;;;3.00;91.74;97987.41;5041534;28;20041;-63
2023/01/27 06:26:28;;;;;;;27.13;16.13;;;;;;;2.74;91.98;97949.06;5025788;28;20024;-63
2023/01/27 06:28:55;;;;;;;26.90;14.98;;;;;;;3.03;92.14;98006.00;5030149;28;20037;-64
2023/01/27 06:31:21;;;;;;;28.13;15.77;;;;;;;2.98;91.61;98000.38;5056656;28;20024;-64
2023/01/27 06:33:46;;;;;;;22.65;13.38;;;;;;;2.98;91.90;98005.50;5056210;28;20053;-64
2023/01/27 06:36:15;;;;;;;25.48;14.73;;;;;;;3.00;91.99;98000.25;5033880;28;20484;-64
2023/01/27 06:38:41;;;;;;;26.27;14.18;;;;;;;2.99;91.98;98001.19;5055629;28;20620;-63
2023/01/27 06:41:07;;;;;;;23.40;14.43;;;;;;;2.70;92.63;97965.59;5067034;28;20024;-64
2023/01/27 06:43:33;;;;;;;27.58;15.18;;;;;;;2.96;91.97;98009.94;5053118;28;20065;-64
2023/01/27 06:46:45;;;;;;;25.02;14.70;;;;;;;3.06;92.43;98012.63;5046456;28;20444;-64
2023/01/27 06:49:11;;;;;;;27.27;14.77;;;;;;;3.12;92.60;98019.91;5043139;28;20021;-64
2023/01/27 06:51:36;;;;;;;26.45;14.35;;;;;;;3.21;91.94;98023.53;5060789;28;20027;-64
2023/01/27 06:54:05;;;;;;;26.85;15.32;;;;;;;2.83;92.27;97973.22;5054891;28;20059;-64
2023/01/27 06:57:20;;;;;;;23.08;13.75;;;;;;;3.17;91.90;98029.84;5039899;28;20684;-63
2023/01/27 06:59:47;;;;;;;27.38;13.18;;;;;;;3.17;91.25;98033.22;5073498;28;20036;-65
2023/01/27 07:02:13;;;;;;;22.77;12.65;;;;;;;3.19;90.77;98027.97;5062618;28;20025;-64
2023/01/27 07:04:39;;;;;;;22.20;11.77;;;;;;;3.22;89.35;98035.47;5064007;28;20034;-64
2023/01/27 07:07:04;;;;;;;22.73;10.30;;;;;;;3.17;88.52;98040.13;5064278;28;20454;-63
2023/01/27 07:09:30;;;;;;;22.20;11.73;;;;;;;3.18;89.17;98044.34;5062361;28;20039;-64
2023/01/27 07:11:56;;;;;;;23.98;13.52;;;;;;;3.11;91.08;98038.00;5079084;28;20032;-63
2023/01/27 07:14:22;;;;;;;24.30;11.88;;;;;;;3.12;90.09;98047.34;5064682;28;20173;-63
2023/01/27 07:16:48;;;;;;;24.30;13.27;;;;;;;3.11;91.11;98059.38;5057123;28;20028;-63
2023/01/27 07:19:15;;;;;;;21.10;11.80;;;;;;;3.15;89.47;98053.06;5060994;28;20029;-64
2023/01/27 07:21:41;;;;;;;19.73;11.10;;;;;;;3.17;89.37;98061.47;5062323;28;20028;-64
2023/01/27 07:24:08;;;;;;;24.08;12.60;;;;;;;3.09;90.65;98066.38;5061990;28;20021;-63
2023/01/27 07:26:35;;;;;;;23.27;10.57;;;;;;;3.03;88.45;98067.63;5065860;28;20074;-63
2023/01/27 07:29:01;;;;;;;15.10;8.75;;;;;;;3.11;85.96;98074.78;5065031;28;20444;-64
2023/01/27 07:31:26;;;;;;;14.70;8.20;;;;;;;3.21;85.67;98073.19;5060936;28;20025;-63
2023/01/27 07:33:52;;;;;;;17.23;9.23;;;;;;;3.13;86.51;98074.69;5064135;28;20503;-64
2023/01/27 07:36:18;;;;;;;15.18;8.30;;;;;;;2.71;85.76;98018.59;5064706;28;20827;-63
2023/01/27 07:38:44;;;;;;;13.77;8.15;;;;;;;3.10;85.42;98080.84;5053980;28;20427;-64
2023/01/27 07:41:10;;;;;;;18.67;9.68;;;;;;;3.19;87.35;98077.59;5057061;28;20027;-64
2023/01/27 07:43:36;;;;;;;24.08;11.00;;;;;;;2.77;88.71;98030.97;5055725;28;20025;-64
2023/01/27 07:46:01;;;;;;;17.80;9.10;;;;;;;3.03;88.44;98070.22;5042796;28;20550;-64
2023/01/27 07:48:27;;;;;;;28.25;14.77;;;;;;;2.68;88.44;98029.91;5061999;28;20029;-64
2023/01/27 07:50:53;;;;;;;22.42;11.45;;;;;;;3.04;87.21;98082.09;5043667;28;20028;-64
2023/01/27 07:53:19;;;;;;;32.35;15.18;;;;;;;3.11;87.23;98079.91;5063388;28;20024;-64
2023/01/27 07:55:44;;;;;;;27.33;10.98;;;;;;;3.22;84.90;98082.53;5060995;28;20040;-64
2023/01/27 07:58:10;;;;;;;16.65;9.00;;;;;;;2.87;84.86;98034.53;5052190;28;20147;-64
2023/01/27 08:00:35;;;;;;;21.85;10.93;;;;;;;3.11;84.83;98079.09;5061845;28;20048;-63
2023/01/27 08:03:01;;;;;;;16.98;8.88;;;;;;;3.18;84.37;98072.59;5058389;28;20032;-64
2023/01/27 08:05:30;;;;;;;17.73;8.18;;;;;;;3.20;84.71;98089.53;5062829;28;20025;-64
2023/01/27 08:07:57;;;;;;;14.95;7.03;;;;;;;3.00;84.22;98085.81;5039339;28;20115;-64
2023/01/27 08:10:23;;;;;;;14.48;7.45;;;;;;;2.91;84.62;98086.50;5067411;28;20484;-64
2023/01/27 08:12:49;;;;;;;12.98;6.25;;;;;;;3.02;84.15;98096.81;5065686;28;20028;-64
2023/01/27 08:15:14;;;;;;;14.85;6.68;;;;;;;3.08;83.62;98108.41;5062162;28;20031;-64
2023/01/27 08:17:40;;;;;;;17.15;6.40;;;;;;;3.20;83.16;98104.94;5045361;28;20226;-64
2023/01/27 08:20:06;;;;;;;13.13;6.68;;;;;;;3.12;82.54;98109.84;5064171;28;20078;-64
2023/01/27 08:22:32;;;;;;;13.75;6.97;;;;;;;3.12;82.10;98111.56;5062863;28;20025;-64
2023/01/27 08:24:57;;;;;;;13.50;6.43;;;;;;;3.04;83.05;98112.13;5077875;28;20039;-65
2023/01/27 08:27:23;;;;;;;16.45;7.20;;;;;;;3.05;83.36;98095.78;5058777;28;20095;-64
2023/01/27 08:29:49;;;;;;;15.18;7.03;;;;;;;3.03;83.56;98106.16;5064880;28;20134;-64
2023/01/27 08:32:14;;;;;;;14.77;6.82;;;;;;;3.00;83.82;98110.69;5065708;28;20096;-63
2023/01/27 08:34:40;;;;;;;12.57;6.43;;;;;;;3.06;83.37;98117.97;5064286;28;20066;-64
2023/01/27 08:37:06;;;;;;;18.67;6.63;;;;;;;3.11;82.70;98110.75;5045389;28;20020;-64
2023/01/27 08:39:33;;;;;;;13.13;7.22;;;;;;;3.17;82.54;98127.47;5077599;28;20024;-64
2023/01/27 08:41:59;;;;;;;13.60;6.72;;;;;;;3.09;82.85;98122.88;5063493;28;20400;-63
2023/01/27 08:44:27;;;;;;;13.45;7.20;;;;;;;3.08;83.23;98134.06;5061721;28;20028;-64
2023/01/27 08:46:53;;;;;;;16.30;7.85;;;;;;;3.19;82.91;98138.47;5063593;28;20024;-64
2023/01/27 08:49:18;;;;;;;17.25;8.02;;;;;;;3.07;82.77;98145.31;5061621;28;20020;-64
2023/01/27 08:51:44;;;;;;;13.35;6.70;;;;;;;3.07;82.26;98135.03;5062293;28;20035;-64
2023/01/27 08:54:10;;;;;;;13.45;6.80;;;;;;;3.17;82.04;98133.41;5051334;28;20755;-64
2023/01/27 08:56:38;;;;;;;16.05;7.20;;;;;;;3.16;81.58;98136.09;5051234;28;21032;-64
2023/01/27 08:59:03;;;;;;;13.40;6.72;;;;;;;3.16;81.73;98131.81;5052409;28;20025;-64
2023/01/27 09:01:29;;;;;;;13.48;6.72;;;;;;;3.09;82.25;98130.59;5063559;28;20024;-64
2023/01/27 09:03:54;;;;;;;15.07;6.93;;;;;;;3.17;81.90;98138.56;5064176;28;20379;-64
2023/01/27 09:06:20;;;;;;;15.75;7.18;;;;;;;3.13;82.03;98134.56;5065133;28;20467;-63
2023/01/27 09:09:07;;;;;;;13.43;7.63;;;;;;;3.19;81.95;98148.72;5061739;28;20044;-63
2023/01/27 09:11:37;;;;;;;14.38;6.90;;;;;;;3.12;81.78;98145.81;5062142;28;20017;-63
2023/01/27 09:14:04;;;;;;;16.85;6.03;;;;;;;3.10;81.21;98147.63;5059130;28;20109;-63
2023/01/27 09:16:30;;;;;;;13.10;6.53;;;;;;;3.26;81.32;98149.94;5064765;28;20036;-63
2023/01/27 09:18:57;;;;;;;11.82;6.70;;;;;;;3.30;81.08;98148.78;5065935;28;20036;-63
2023/01/27 09:21:24;;;;;;;15.18;7.07;;;;;;;3.24;80.53;98150.03;5061240;28;20048;-63
2023/01/27 09:23:50;;;;;;;14.68;6.57;;;;;;;3.32;80.38;98151.25;5056571;28;20033;-64
2023/01/27 09:26:15;;;;;;;14.57;7.40;;;;;;;3.19;79.93;98144.41;5064881;28;20024;-64
2023/01/27 09:28:41;;;;;;;15.52;6.95;;;;;;;3.29;80.20;98154.88;5069592;28;20024;-64
2023/01/27 09:31:08;;;;;;;13.30;7.43;;;;;;;3.26;80.47;98155.88;5064289;28;20506;-64
2023/01/27 09:33:35;;;;;;;14.80;6.95;;;;;;;3.19;80.91;98141.84;5068694;28;20028;-64
2023/01/27 09:36:09;;;;;;;13.52;6.70;;;;;;;3.32;81.20;98151.25;5063034;28;20119;-64
2023/01/27 09:38:40;;;;;;;15.38;6.75;;;;;;;3.32;80.22;98159.75;5065301;28;20123;-64
2023/01/27 09:41:22;;;;;;;19.80;9.65;;;;;;;3.33;80.93;98151.13;5062170;28;20071;-64
2023/01/27 09:44:05;;;;;;;20.42;9.63;;;;;;;3.37;80.81;98159.44;5057265;28;20025;-64
2023/01/27 09:46:45;;;;;;;15.85;7.68;;;;;;;3.16;79.63;98108.69;5062614;28;20021;-64
2023/01/27 09:49:20;;;;;;;15.65;8.02;;;;;;;3.14;79.45;98094.28;5055579;28;20021;-63
2023/01/27 09:52:00;;;;;;;14.43;6.75;;;;;;;3.17;80.18;98101.78;5061118;28;20036;-63
2023/01/27 09:54:36;;;;;;;14.63;7.07;;;;;;;3.41;80.25;98163.44;5076399;28;20033;-63
2023/01/27 09:57:20;;;;;;;15.23;7.18;;;;;;;3.42;80.58;98157.38;5062520;28;20029;-64
2023/01/27 10:00:09;;;;;;;16.75;7.80;;;;;;;3.30;80.46;98145.41;5045844;28;20543;-64
2023/01/27 10:03:12;;;;;;;17.07;9.03;;;;;;;3.39;80.60;98150.69;5078295;28;20173;-64
2023/01/27 10:06:01;;;;;;;13.77;7.47;;;;;;;3.37;81.12;98154.31;5060810;28;20360;-64
2023/01/27 10:08:27;;;;;;;16.08;7.82;;;;;;;3.40;80.45;98149.78;5060948;28;20125;-64
2023/01/27 10:10:59;;;;;;;16.13;7.53;;;;;;;3.33;80.23;98145.19;5079822;28;20033;-63
2023/01/27 10:13:58;;;;;;;13.55;6.60;;;;;;;3.33;80.60;98142.63;5060718;28;20481;-64
2023/01/27 10:16:42;;;;;;;13.68;7.05;;;;;;;3.40;81.55;98147.19;5027743;28;20052;-64
2023/01/27 10:19:34;;;;;;;15.13;7.88;;;;;;;3.27;80.98;98129.28;5072847;28;20037;-64
2023/01/27 10:22:33;;;;;;;14.00;7.32;;;;;;;3.42;80.94;98141.94;5063754;28;20724;-64
2023/01/27 10:25:19;;;;;;;;;;;;;;;3.13;80.24;98097.81;5062571;28;20021;-64
2023/01/27 10:27:47;;;;;;;15.15;7.43;;;;;;;3.37;79.75;98142.28;5076267;28;19989;-64
2023/01/27 10:30:34;;;;;;;16.08;8.23;;;;;;;3.39;80.21;98137.03;5061304;28;20867;-63
2023/01/27 10:33:09;;;;;;;14.00;7.28;;;;;;;3.36;80.59;98130.38;5057511;28;20081;-63
2023/01/27 10:35:38;;;;;;;15.40;7.82;;;;;;;3.29;80.44;98136.06;5062335;28;20112;-63
2023/01/27 10:38:26;;;;;;;17.15;8.45;;;;;;;3.36;81.13;98132.94;5074417;28;20027;-63
2023/01/27 10:41:02;;;;;;;21.00;10.93;;;;;;;3.40;80.57;98120.69;5064606;28;20024;-64
2023/01/27 10:44:10;;;;;;;16.88;8.65;;;;;;;3.47;80.20;98125.25;5046448;28;20597;-64
2023/01/27 10:46:47;;;;;;;19.83;11.50;;;;;;;3.49;80.64;98120.00;5054310;28;20028;-64
2023/01/27 10:49:48;;;;;;;19.10;10.65;;;;;;;3.51;79.88;98127.63;5059566;28;20515;-64
2023/01/27 10:52:23;;;;;;;18.10;9.23;;;;;;;3.52;78.75;98124.91;5005467;28;20115;-64
2023/01/27 10:54:52;;;;;;;15.07;7.85;;;;;;;3.55;79.33;98123.88;5061528;28;20024;-64
2023/01/27 10:57:44;;;;;;;14.35;7.85;;;;;;;3.53;79.17;98124.00;5064137;28;20155;-64
2023/01/27 11:00:26;;;;;;;16.38;8.52;;;;;;;3.53;79.26;98113.72;5064251;28;20020;-64
2023/01/27 11:02:59;;;;;;;15.85;7.75;;;;;;;3.48;78.89;98115.78;5058412;28;20403;-64
2023/01/27 11:05:48;;;;;;;20.77;9.38;;;;;;;3.44;78.97;98106.66;5061984;28;20491;-65
2023/01/27 11:08:24;;;;;;;16.55;8.27;;;;;;;3.57;79.26;98117.69;5063101;28;20056;-66
2023/01/27 11:13:38;;;;;;;26.42;13.90;;;;;;;3.65;79.03;98110.25;5059685;28;20129;-65
2023/01/27 11:16:08;;;;;;;46.40;22.00;;;;;;;3.60;79.47;98120.03;5060890;28;20047;-65
2023/01/27 11:18:36;;;;;;;39.42;18.33;;;;;;;3.59;79.24;98099.59;5061305;28;20149;-65
2023/01/27 11:21:10;;;;;;;27.25;13.35;;;;;;;3.60;79.28;98112.34;5060753;28;20032;-65
2023/01/27 11:23:41;;;;;;;21.42;10.73;;;;;;;3.57;79.34;98109.16;5059344;28;20631;-65
2023/01/27 11:26:25;;;;;;;17.25;8.80;;;;;;;3.46;79.72;98090.19;5044430;28;20368;-65
2023/01/27 11:29:16;;;;;;;19.48;9.35;;;;;;;3.56;79.46;98105.78;5078091;28;20045;-65
2023/01/27 11:31:56;;;;;;;17.58;9.45;;;;;;;3.71;79.58;98100.44;5065931;28;20099;-67
2023/01/27 11:34:50;;;;;;;22.45;9.73;;;;;;;3.56;80.05;98104.94;5039906;28;20040;-65
2023/01/27 11:37:53;;;;;;;18.35;9.68;;;;;;;3.54;79.85;98094.78;5054086;28;20162;-65
2023/01/27 11:40:40;;;;;;;18.33;9.10;;;;;;;3.60;79.88;98091.75;5076767;28;20024;-64
2023/01/27 11:43:06;;;;;;;19.38;9.30;;;;;;;3.52;80.04;98076.06;5059885;28;20024;-65
2023/01/27 11:45:36;;;;;;;26.45;9.57;;;;;;;3.60;80.16;98078.09;5061290;28;20147;-64
2023/01/27 11:48:06;;;;;;;18.70;9.02;;;;;;;3.68;78.21;98083.47;5056865;28;20096;-65
2023/01/27 11:50:35;;;;;;;15.77;8.88;;;;;;;3.74;78.88;98082.19;5049000;28;20056;-64
2023/01/27 11:53:28;;;;;;;17.73;9.82;;;;;;;3.71;78.96;98090.16;5058474;28;20138;-65
2023/01/27 11:56:01;;;;;;;17.48;9.52;;;;;;;3.45;79.57;98091.16;5058933;28;20511;-65
2023/01/27 11:58:33;;;;;;;19.40;10.40;;;;;;;3.51;79.91;98081.34;5062412;28;20017;-64
2023/01/27 12:01:15;;;;;;;16.98;8.88;;;;;;;3.51;80.50;98084.72;5061588;28;20040;-64
2023/01/27 12:04:03;;;;;;;15.85;9.63;;;;;;;3.46;80.20;98071.38;5056689;28;20178;-65
2023/01/27 12:06:55;;;;;;;16.98;9.98;;;;;;;3.47;80.03;98073.03;5062260;28;20060;-64
2023/01/27 12:09:37;;;;;;;18.65;9.77;;;;;;;3.29;80.19;98064.94;5045081;28;20582;-65
2023/01/27 12:12:24;;;;;;;20.42;10.52;;;;;;;3.23;81.26;98061.06;5066326;28;20773;-64
2023/01/27 12:15:01;;;;;;;19.38;10.75;;;;;;;3.42;80.28;98064.84;5059282;28;20038;-65
2023/01/27 12:17:39;;;;;;;18.23;9.05;;;;;;;3.55;79.06;98062.19;5040550;28;20020;-64